sensor_id;sensor_type;location;lat;lon;timestamp;pressure;altitude;pressure_sealevel;temperature;humidity
10668;BME280;5382;42.136;24.796;2023-06-14T00:01:19;99502.97;;;20.68;100.00
10668;BME280;5382;42.136;24.796;2023-06-14T00:03:47;99488.84;;;20.66;100.00
10668;BME280;5382;42.136;24.796;2023-06-14T00:06:14;99498.31;;;20.77;100.00
10668;BME280;5382;42.136;24.796;2023-06-14T00:08:41;99502.09;;;20.82;100.00
10668;BME280;5382;42.136;24.796;2023-06-14T00:11:08;99505.44;;;20.84;100.00
10668;BME280;5382;42.136;24.796;2023-06-14T00:13:36;99500.34;;;20.75;100.00
10668;BME280;5382;42.136;24.796;2023-06-14T00:16:03;99505.44;;;20.69;100.00
10668;BME280;5382;42.136;24.796;2023-06-14T00:18:30;99505.06;;;20.73;100.00
10668;BME280;5382;42.136;24.796;2023-06-14T00:20:58;99492.94;;;20.77;100.00
10668;BME280;5382;42.136;24.796;2023-06-14T00:23:24;99495.44;;;20.63;100.00
10668;BME280;5382;42.136;24.796;2023-06-14T00:25:51;99496.09;;;20.65;100.00
10668;BME280;5382;42.136;24.796;2023-06-14T00:28:18;99492.09;;;20.61;100.00
10668;BME280;5382;42.136;24.796;2023-06-14T00:30:47;99496.28;;;20.64;100.00
10668;BME280;5382;42.136;24.796;2023-06-14T00:33:13;99489.31;;;20.69;100.00
10668;BME280;5382;42.136;24.796;2023-06-14T00:35:40;99491.34;;;20.67;100.00
10668;BME280;5382;42.136;24.796;2023-06-14T00:38:07;99483.84;;;20.63;100.00
10668;BME280;5382;42.136;24.796;2023-06-14T00:40:34;99489.22;;;20.63;100.00
10668;BME280;5382;42.136;24.796;2023-06-14T00:43:01;99489.59;;;20.60;100.00
10668;BME280;5382;42.136;24.796;2023-06-14T00:45:27;99482.72;;;20.57;100.00
10668;BME280;5382;42.136;24.796;2023-06-14T00:47:58;99480.13;;;20.64;100.00
10668;BME280;5382;42.136;24.796;2023-06-14T00:50:25;99478.19;;;20.73;100.00
10668;BME280;5382;42.136;24.796;2023-06-14T00:52:52;99476.34;;;20.73;100.00
10668;BME280;5382;42.136;24.796;2023-06-14T00:55:19;99477.16;;;20.59;100.00
10668;BME280;5382;42.136;24.796;2023-06-14T00:57:46;99480.59;;;20.67;100.00
10668;BME280;5382;42.136;24.796;2023-06-14T01:00:13;99482.38;;;20.60;100.00
10668;BME280;5382;42.136;24.796;2023-06-14T01:02:40;99474.31;;;20.60;100.00
10668;BME280;5382;42.136;24.796;2023-06-14T01:05:09;99465.97;;;20.55;100.00
10668;BME280;5382;42.136;24.796;2023-06-14T01:07:48;99468.78;;;20.54;100.00
10668;BME280;5382;42.136;24.796;2023-06-14T01:10:29;99475.88;;;20.55;100.00
10668;BME280;5382;42.136;24.796;2023-06-14T01:13:05;99472.13;;;20.41;100.00
10668;BME280;5382;42.136;24.796;2023-06-14T01:15:34;99475.56;;;20.35;100.00
10668;BME280;5382;42.136;24.796;2023-06-14T01:18:01;99475.00;;;20.24;100.00
10668;BME280;5382;42.136;24.796;2023-06-14T01:20:32;99462.56;;;20.23;100.00
10668;BME280;5382;42.136;24.796;2023-06-14T01:23:03;99464.63;;;20.21;100.00
10668;BME280;5382;42.136;24.796;2023-06-14T01:25:30;99471.47;;;20.24;100.00
10668;BME280;5382;42.136;24.796;2023-06-14T01:27:59;99457.66;;;20.12;100.00
10668;BME280;5382;42.136;24.796;2023-06-14T01:30:27;99469.50;;;20.18;100.00
10668;BME280;5382;42.136;24.796;2023-06-14T01:32:54;99474.50;;;20.21;100.00
10668;BME280;5382;42.136;24.796;2023-06-14T01:35:22;99458.09;;;20.16;100.00
10668;BME280;5382;42.136;24.796;2023-06-14T01:37:50;99474.50;;;20.21;100.00
10668;BME280;5382;42.136;24.796;2023-06-14T01:40:19;99470.63;;;20.23;100.00
10668;BME280;5382;42.136;24.796;2023-06-14T01:42:49;99466.81;;;20.18;100.00
10668;BME280;5382;42.136;24.796;2023-06-14T01:45:17;99470.81;;;20.22;100.00
10668;BME280;5382;42.136;24.796;2023-06-14T01:47:44;99468.59;;;20.25;100.00
10668;BME280;5382;42.136;24.796;2023-06-14T01:50:30;99471.47;;;20.24;100.00
10668;BME280;5382;42.136;24.796;2023-06-14T01:52:57;99469.63;;;20.24;100.00
10668;BME280;5382;42.136;24.796;2023-06-14T01:55:24;99468.97;;;20.22;100.00
10668;BME280;5382;42.136;24.796;2023-06-14T01:57:51;99464.97;;;20.18;100.00
10668;BME280;5382;42.136;24.796;2023-06-14T02:00:19;99473.75;;;20.12;100.00
10668;BME280;5382;42.136;24.796;2023-06-14T02:02:47;99470.03;;;20.13;100.00
10668;BME280;5382;42.136;24.796;2023-06-14T02:05:14;99467.19;;;20.15;100.00
10668;BME280;5382;42.136;24.796;2023-06-14T02:07:45;99464.22;;;20.10;100.00
10668;BME280;5382;42.136;24.796;2023-06-14T02:10:13;99470.03;;;20.13;100.00
10668;BME280;5382;42.136;24.796;2023-06-14T02:12:40;99471.31;;;20.02;100.00
10668;BME280;5382;42.136;24.796;2023-06-14T02:15:08;99480.03;;;20.04;100.00
10668;BME280;5382;42.136;24.796;2023-06-14T02:17:42;99472.06;;;19.96;100.00
10668;BME280;5382;42.136;24.796;2023-06-14T02:20:09;99478.09;;;19.98;100.00
10668;BME280;5382;42.136;24.796;2023-06-14T02:22:36;99474.22;;;20.01;100.00
10668;BME280;5382;42.136;24.796;2023-06-14T02:25:05;99468.72;;;19.94;100.00
10668;BME280;5382;42.136;24.796;2023-06-14T02:27:32;99471.56;;;19.93;100.00
10668;BME280;5382;42.136;24.796;2023-06-14T02:29:59;99472.44;;;19.93;100.00
10668;BME280;5382;42.136;24.796;2023-06-14T02:32:26;99475.94;;;19.94;100.00
10668;BME280;5382;42.136;24.796;2023-06-14T02:34:53;99473.97;;;19.88;100.00
10668;BME280;5382;42.136;24.796;2023-06-14T02:37:20;99475.66;;;19.89;100.00
10668;BME280;5382;42.136;24.796;2023-06-14T02:39:47;99481.69;;;19.91;100.00
10668;BME280;5382;42.136;24.796;2023-06-14T02:42:15;99485.19;;;19.91;100.00
10668;BME280;5382;42.136;24.796;2023-06-14T02:44:42;99489.91;;;19.89;100.00
10668;BME280;5382;42.136;24.796;2023-06-14T02:47:10;99486.75;;;19.86;100.00
10668;BME280;5382;42.136;24.796;2023-06-14T02:49:37;99495.44;;;19.88;100.00
10668;BME280;5382;42.136;24.796;2023-06-14T02:52:06;99492.13;;;19.86;100.00
10668;BME280;5382;42.136;24.796;2023-06-14T02:54:34;99494.16;;;19.83;100.00
10668;BME280;5382;42.136;24.796;2023-06-14T02:57:01;99494.69;;;19.79;100.00
10668;BME280;5382;42.136;24.796;2023-06-14T02:59:29;99488.28;;;19.80;100.00
10668;BME280;5382;42.136;24.796;2023-06-14T03:01:56;99487.47;;;19.79;100.00
10668;BME280;5382;42.136;24.796;2023-06-14T03:04:24;99498.75;;;19.75;100.00
10668;BME280;5382;42.136;24.796;2023-06-14T03:06:52;99492.06;;;19.71;100.00
10668;BME280;5382;42.136;24.796;2023-06-14T03:09:19;99487.72;;;19.70;100.00
10668;BME280;5382;42.136;24.796;2023-06-14T03:11:46;99497.56;;;19.77;100.00
10668;BME280;5382;42.136;24.796;2023-06-14T03:14:13;99499.47;;;19.69;100.00
10668;BME280;5382;42.136;24.796;2023-06-14T03:16:41;99508.00;;;19.72;100.00
10668;BME280;5382;42.136;24.796;2023-06-14T03:19:08;99505.13;;;19.74;100.00
10668;BME280;5382;42.136;24.796;2023-06-14T03:21:35;99511.81;;;19.78;100.00
10668;BME280;5382;42.136;24.796;2023-06-14T03:24:01;99517.19;;;19.78;100.00
10668;BME280;5382;42.136;24.796;2023-06-14T03:26:28;99517.72;;;19.73;100.00
10668;BME280;5382;42.136;24.796;2023-06-14T03:28:57;99524.94;;;19.73;100.00
10668;BME280;5382;42.136;24.796;2023-06-14T03:31:24;99514.38;;;19.71;100.00
10668;BME280;5382;42.136;24.796;2023-06-14T03:33:52;99517.56;;;19.75;100.00
10668;BME280;5382;42.136;24.796;2023-06-14T03:36:19;99515.03;;;19.73;100.00
10668;BME280;5382;42.136;24.796;2023-06-14T03:38:46;99531.81;;;19.75;100.00
10668;BME280;5382;42.136;24.796;2023-06-14T03:41:13;99535.50;;;19.74;100.00
10668;BME280;5382;42.136;24.796;2023-06-14T03:43:39;99533.78;;;19.81;100.00
10668;BME280;5382;42.136;24.796;2023-06-14T03:46:06;99537.78;;;19.86;100.00
10668;BME280;5382;42.136;24.796;2023-06-14T03:48:33;99537.78;;;19.86;100.00
10668;BME280;5382;42.136;24.796;2023-06-14T03:51:01;99546.44;;;19.96;100.00
10668;BME280;5382;42.136;24.796;2023-06-14T03:53:28;99553.75;;;20.02;100.00
10668;BME280;5382;42.136;24.796;2023-06-14T03:55:55;99550.03;;;20.03;100.00
10668;BME280;5382;42.136;24.796;2023-06-14T03:58:22;99557.63;;;19.99;100.00
10668;BME280;5382;42.136;24.796;2023-06-14T04:00:49;99561.81;;;20.02;100.00
10668;BME280;5382;42.136;24.796;2023-06-14T04:03:16;99552.41;;;20.06;100.00
10668;BME280;5382;42.136;24.796;2023-06-14T04:05:45;99555.53;;;20.10;100.00
10668;BME280;5382;42.136;24.796;2023-06-14T04:08:16;99552.69;;;20.11;100.00
10668;BME280;5382;42.136;24.796;2023-06-14T04:10:44;99565.47;;;20.09;100.00
10668;BME280;5382;42.136;24.796;2023-06-14T04:13:11;99562.03;;;20.15;100.00
10668;BME280;5382;42.136;24.796;2023-06-14T04:15:38;99566.81;;;20.05;100.00
10668;BME280;5382;42.136;24.796;2023-06-14T04:18:07;99570.16;;;20.07;100.00
10668;BME280;5382;42.136;24.796;2023-06-14T04:20:34;99569.44;;;20.13;100.00
10668;BME280;5382;42.136;24.796;2023-06-14T04:23:11;99571.13;;;20.14;100.00
10668;BME280;5382;42.136;24.796;2023-06-14T04:25:40;99563.16;;;20.21;100.00
10668;BME280;5382;42.136;24.796;2023-06-14T04:28:11;99572.19;;;20.28;100.00
10668;BME280;5382;42.136;24.796;2023-06-14T04:30:39;99568.22;;;20.39;100.00
10668;BME280;5382;42.136;24.796;2023-06-14T04:33:06;99570.47;;;20.50;100.00
10668;BME280;5382;42.136;24.796;2023-06-14T04:35:33;99576.47;;;20.60;100.00
10668;BME280;5382;42.136;24.796;2023-06-14T04:38:02;99571.38;;;20.65;100.00
10668;BME280;5382;42.136;24.796;2023-06-14T04:40:30;99571.00;;;20.68;100.00
10668;BME280;5382;42.136;24.796;2023-06-14T04:42:59;99574.97;;;20.73;100.00
10668;BME280;5382;42.136;24.796;2023-06-14T04:45:26;99581.09;;;20.66;100.00
10668;BME280;5382;42.136;24.796;2023-06-14T04:47:58;99590.00;;;20.67;100.00
10668;BME280;5382;42.136;24.796;2023-06-14T04:50:25;99583.78;;;20.66;100.00
10668;BME280;5382;42.136;24.796;2023-06-14T04:52:52;99586.47;;;20.66;100.00
10668;BME280;5382;42.136;24.796;2023-06-14T04:55:20;99586.09;;;20.69;100.00
10668;BME280;5382;42.136;24.796;2023-06-14T04:57:47;99580.72;;;20.69;100.00
10668;BME280;5382;42.136;24.796;2023-06-14T05:00:16;99587.41;;;20.74;100.00
10668;BME280;5382;42.136;24.796;2023-06-14T05:02:43;99588.34;;;20.66;100.00
10668;BME280;5382;42.136;24.796;2023-06-14T05:05:10;99587.97;;;20.69;100.00
10668;BME280;5382;42.136;24.796;2023-06-14T05:07:36;99585.44;;;20.67;100.00
10668;BME280;5382;42.136;24.796;2023-06-14T05:10:04;99593.78;;;20.58;100.00
10668;BME280;5382;42.136;24.796;2023-06-14T05:12:31;99595.44;;;20.59;100.00
10668;BME280;5382;42.136;24.796;2023-06-14T05:14:59;99599.16;;;20.73;100.00
10668;BME280;5382;42.136;24.796;2023-06-14T05:17:27;99595.41;;;20.97;100.00
10668;BME280;5382;42.136;24.796;2023-06-14T05:19:54;99592.97;;;21.17;100.00
10668;BME280;5382;42.136;24.796;2023-06-14T05:22:21;99606.44;;;21.17;100.00
10668;BME280;5382;42.136;24.796;2023-06-14T05:24:48;99603.56;;;21.03;100.00
10668;BME280;5382;42.136;24.796;2023-06-14T05:27:15;99607.84;;;21.12;100.00
10668;BME280;5382;42.136;24.796;2023-06-14T05:29:42;99617.19;;;21.31;100.00
10668;BME280;5382;42.136;24.796;2023-06-14T05:32:09;99622.59;;;21.46;100.00
10668;BME280;5382;42.136;24.796;2023-06-14T05:34:37;99614.84;;;21.58;100.00
10668;BME280;5382;42.136;24.796;2023-06-14T05:37:04;99618.94;;;21.69;100.00
10668;BME280;5382;42.136;24.796;2023-06-14T05:39:31;99623.56;;;21.75;100.00
10668;BME280;5382;42.136;24.796;2023-06-14T05:41:58;99620.69;;;21.76;100.00
10668;BME280;5382;42.136;24.796;2023-06-14T05:44:24;99622.06;;;21.87;100.00
10668;BME280;5382;42.136;24.796;2023-06-14T05:46:51;99631.06;;;21.94;100.00
10668;BME280;5382;42.136;24.796;2023-06-14T05:49:18;99633.41;;;22.04;100.00
10668;BME280;5382;42.136;24.796;2023-06-14T05:51:46;99641.09;;;22.22;100.00
10668;BME280;5382;42.136;24.796;2023-06-14T05:54:13;99643.28;;;22.33;100.00
10668;BME280;5382;42.136;24.796;2023-06-14T05:56:40;99643.59;;;22.45;100.00
10668;BME280;5382;42.136;24.796;2023-06-14T05:59:07;99649.69;;;22.54;100.00
10668;BME280;5382;42.136;24.796;2023-06-14T06:01:33;99641.41;;;22.55;100.00
10668;BME280;5382;42.136;24.796;2023-06-14T06:04:02;99643.91;;;22.57;100.00
10668;BME280;5382;42.136;24.796;2023-06-14T06:06:28;99639.88;;;22.46;100.00
10668;BME280;5382;42.136;24.796;2023-06-14T06:08:57;99644.31;;;22.54;100.00
10668;BME280;5382;42.136;24.796;2023-06-14T06:11:24;99643.44;;;22.53;100.00
10668;BME280;5382;42.136;24.796;2023-06-14T06:13:51;99640.59;;;22.33;100.00
10668;BME280;5382;42.136;24.796;2023-06-14T06:16:18;99641.69;;;22.39;100.00
10668;BME280;5382;42.136;24.796;2023-06-14T06:18:45;99640.47;;;22.41;100.00
10668;BME280;5382;42.136;24.796;2023-06-14T06:21:11;99643.06;;;22.13;100.00
10668;BME280;5382;42.136;24.796;2023-06-14T06:23:38;99641.22;;;22.35;100.00
10668;BME280;5382;42.136;24.796;2023-06-14T06:26:06;99641.09;;;22.43;100.00
10668;BME280;5382;42.136;24.796;2023-06-14T06:28:33;99641.00;;;22.58;100.00
10668;BME280;5382;42.136;24.796;2023-06-14T06:31:00;99646.03;;;22.61;100.00
10668;BME280;5382;42.136;24.796;2023-06-14T06:33:28;99646.88;;;22.62;100.00
10668;BME280;5382;42.136;24.796;2023-06-14T06:35:55;99647.63;;;22.56;100.00
10668;BME280;5382;42.136;24.796;2023-06-14T06:38:22;99643.78;;;22.65;100.00
10668;BME280;5382;42.136;24.796;2023-06-14T06:40:49;99652.53;;;22.74;100.00
10668;BME280;5382;42.136;24.796;2023-06-14T06:43:17;99656.34;;;22.58;100.00
10668;BME280;5382;42.136;24.796;2023-06-14T06:45:44;99658.91;;;22.66;100.00
10668;BME280;5382;42.136;24.796;2023-06-14T06:48:11;99655.94;;;22.82;100.00
10668;BME280;5382;42.136;24.796;2023-06-14T06:50:38;99659.13;;;22.93;100.00
10668;BME280;5382;42.136;24.796;2023-06-14T06:53:05;99654.75;;;22.92;100.00
10668;BME280;5382;42.136;24.796;2023-06-14T06:55:32;99662.13;;;23.04;100.00
10668;BME280;5382;42.136;24.796;2023-06-14T06:57:59;99660.63;;;23.23;100.00
10668;BME280;5382;42.136;24.796;2023-06-14T07:00:28;99666.03;;;23.23;100.00
10668;BME280;5382;42.136;24.796;2023-06-14T07:02:55;99661.84;;;23.21;100.00
10668;BME280;5382;42.136;24.796;2023-06-14T07:05:22;99655.13;;;23.10;100.00
10668;BME280;5382;42.136;24.796;2023-06-14T07:07:49;99660.09;;;23.06;100.00
10668;BME280;5382;42.136;24.796;2023-06-14T07:10:16;99665.81;;;22.97;100.00
10668;BME280;5382;42.136;24.796;2023-06-14T07:12:43;99657.53;;;22.98;100.00
10668;BME280;5382;42.136;24.796;2023-06-14T07:15:11;99656.88;;;22.96;100.00
10668;BME280;5382;42.136;24.796;2023-06-14T07:17:39;99663.38;;;23.02;100.00
10668;BME280;5382;42.136;24.796;2023-06-14T07:20:08;99668.25;;;23.13;100.00
10668;BME280;5382;42.136;24.796;2023-06-14T07:22:39;99655.16;;;23.17;100.00
10668;BME280;5382;42.136;24.796;2023-06-14T07:25:08;99656.69;;;23.26;100.00
10668;BME280;5382;42.136;24.796;2023-06-14T07:27:35;99642.03;;;23.07;100.00
10668;BME280;5382;42.136;24.796;2023-06-14T07:30:02;99644.78;;;23.14;100.00
10668;BME280;5382;42.136;24.796;2023-06-14T07:32:29;99649.25;;;23.35;100.00
10668;BME280;5382;42.136;24.796;2023-06-14T07:34:57;99651.72;;;23.29;100.00
10668;BME280;5382;42.136;24.796;2023-06-14T07:37:24;99650.59;;;23.17;100.00
10668;BME280;5382;42.136;24.796;2023-06-14T07:39:51;99652.72;;;23.22;100.00
10668;BME280;5382;42.136;24.796;2023-06-14T07:42:18;99648.97;;;23.23;100.00
10668;BME280;5382;42.136;24.796;2023-06-14T07:44:45;99648.03;;;23.44;100.00
10668;BME280;5382;42.136;24.796;2023-06-14T07:47:12;99657.22;;;23.49;100.00
10668;BME280;5382;42.136;24.796;2023-06-14T07:49:39;99660.25;;;23.75;100.00
10668;BME280;5382;42.136;24.796;2023-06-14T07:52:07;99653.72;;;24.04;100.00
10668;BME280;5382;42.136;24.796;2023-06-14T07:54:34;99645.63;;;24.24;100.00
10668;BME280;5382;42.136;24.796;2023-06-14T07:57:01;99641.91;;;24.25;100.00
10668;BME280;5382;42.136;24.796;2023-06-14T07:59:28;99646.69;;;24.36;100.00
10668;BME280;5382;42.136;24.796;2023-06-14T08:01:55;99652.13;;;24.43;100.00
10668;BME280;5382;42.136;24.796;2023-06-14T08:04:22;99656.31;;;24.45;100.00
10668;BME280;5382;42.136;24.796;2023-06-14T08:06:50;99655.91;;;24.48;100.00
10668;BME280;5382;42.136;24.796;2023-06-14T08:09:19;99655.50;;;24.71;100.00
10668;BME280;5382;42.136;24.796;2023-06-14T08:11:46;99661.13;;;24.76;100.00
10668;BME280;5382;42.136;24.796;2023-06-14T08:14:13;99655.69;;;24.83;100.00
10668;BME280;5382;42.136;24.796;2023-06-14T08:16:39;99662.78;;;24.84;100.00
10668;BME280;5382;42.136;24.796;2023-06-14T08:19:07;99662.78;;;24.84;100.00
10668;BME280;5382;42.136;24.796;2023-06-14T08:21:34;99666.50;;;24.83;100.00
10668;BME280;5382;42.136;24.796;2023-06-14T08:24:02;99663.59;;;25.18;100.00
10668;BME280;5382;42.136;24.796;2023-06-14T08:26:30;99667.69;;;25.47;100.00
10668;BME280;5382;42.136;24.796;2023-06-14T08:28:57;99680.38;;;25.60;100.00
10668;BME280;5382;42.136;24.796;2023-06-14T08:31:24;99677.66;;;25.60;100.00
10668;BME280;5382;42.136;24.796;2023-06-14T08:33:52;99679.28;;;25.74;100.00
10668;BME280;5382;42.136;24.796;2023-06-14T08:36:19;99683.53;;;26.02;100.00
10668;BME280;5382;42.136;24.796;2023-06-14T08:38:48;99688.22;;;26.26;100.00
10668;BME280;5382;42.136;24.796;2023-06-14T08:41:20;99685.34;;;26.15;100.00
10668;BME280;5382;42.136;24.796;2023-06-14T08:43:49;99691.22;;;26.11;100.00
10668;BME280;5382;42.136;24.796;2023-06-14T08:46:18;99680.41;;;25.53;100.00
10668;BME280;5382;42.136;24.796;2023-06-14T08:48:48;99689.78;;;25.37;100.00
10668;BME280;5382;42.136;24.796;2023-06-14T08:51:18;99691.88;;;25.42;100.00
10668;BME280;5382;42.136;24.796;2023-06-14T08:53:51;99692.84;;;25.74;100.00
10668;BME280;5382;42.136;24.796;2023-06-14T08:56:19;99686.06;;;25.97;100.00
10668;BME280;5382;42.136;24.796;2023-06-14T08:58:46;99681.28;;;25.99;100.00
10668;BME280;5382;42.136;24.796;2023-06-14T09:01:15;99678.78;;;25.97;100.00
10668;BME280;5382;42.136;24.796;2023-06-14T09:03:44;99682.28;;;26.04;100.00
10668;BME280;5382;42.136;24.796;2023-06-14T09:06:14;99686.59;;;26.19;100.00
10668;BME280;5382;42.136;24.796;2023-06-14T09:08:42;99685.88;;;26.30;100.00
10668;BME280;5382;42.136;24.796;2023-06-14T09:11:11;99683.88;;;26.50;100.00
10668;BME280;5382;42.136;24.796;2023-06-14T09:13:40;99676.94;;;26.61;100.00
10668;BME280;5382;42.136;24.796;2023-06-14T09:16:07;99674.50;;;27.03;100.00
10668;BME280;5382;42.136;24.796;2023-06-14T09:18:41;99676.69;;;27.56;100.00
10668;BME280;5382;42.136;24.796;2023-06-14T09:21:09;99656.38;;;27.59;100.00
10668;BME280;5382;42.136;24.796;2023-06-14T09:23:36;99657.44;;;27.58;100.00
10668;BME280;5382;42.136;24.796;2023-06-14T09:26:07;99654.41;;;27.66;100.00
10668;BME280;5382;42.136;24.796;2023-06-14T09:28:35;99652.81;;;27.77;100.00
10668;BME280;5382;42.136;24.796;2023-06-14T09:31:02;99646.78;;;27.56;100.00
10668;BME280;5382;42.136;24.796;2023-06-14T09:33:30;99643.16;;;27.62;100.00
10668;BME280;5382;42.136;24.796;2023-06-14T09:35:59;99642.50;;;27.86;100.00
10668;BME280;5382;42.136;24.796;2023-06-14T09:38:26;99648.38;;;27.82;100.00
10668;BME280;5382;42.136;24.796;2023-06-14T09:40:56;99635.56;;;28.01;100.00
10668;BME280;5382;42.136;24.796;2023-06-14T09:43:23;99638.84;;;27.73;100.00
10668;BME280;5382;42.136;24.796;2023-06-14T09:45:52;99627.88;;;27.80;100.00
10668;BME280;5382;42.136;24.796;2023-06-14T09:48:21;99630.59;;;27.80;100.00
10668;BME280;5382;42.136;24.796;2023-06-14T09:50:49;99627.47;;;27.28;100.00
10668;BME280;5382;42.136;24.796;2023-06-14T09:53:21;99633.38;;;27.25;100.00
10668;BME280;5382;42.136;24.796;2023-06-14T09:55:49;99631.72;;;27.24;100.00
10668;BME280;5382;42.136;24.796;2023-06-14T09:58:19;99631.06;;;27.03;100.00
10668;BME280;5382;42.136;24.796;2023-06-14T10:00:47;99624.59;;;27.23;100.00
10668;BME280;5382;42.136;24.796;2023-06-14T10:03:21;99623.31;;;27.44;100.00
10668;BME280;5382;42.136;24.796;2023-06-14T10:05:51;99623.84;;;27.52;100.00
10668;BME280;5382;42.136;24.796;2023-06-14T10:08:20;99624.28;;;27.31;100.00
10668;BME280;5382;42.136;24.796;2023-06-14T10:10:51;99617.91;;;27.00;100.00
10668;BME280;5382;42.136;24.796;2023-06-14T10:13:18;99615.16;;;26.82;100.00
10668;BME280;5382;42.136;24.796;2023-06-14T10:15:54;99617.28;;;26.23;100.00
10668;BME280;5382;42.136;24.796;2023-06-14T10:18:31;99615.34;;;26.05;100.00
10668;BME280;5382;42.136;24.796;2023-06-14T10:21:06;99613.28;;;26.00;100.00
10668;BME280;5382;42.136;24.796;2023-06-14T10:23:38;99608.03;;;26.05;100.00
10668;BME280;5382;42.136;24.796;2023-06-14T10:26:08;99613.06;;;26.33;100.00
10668;BME280;5382;42.136;24.796;2023-06-14T10:28:37;99608.34;;;26.54;100.00
10668;BME280;5382;42.136;24.796;2023-06-14T10:31:06;99620.38;;;26.58;100.00
10668;BME280;5382;42.136;24.796;2023-06-14T10:33:35;99609.53;;;26.58;100.00
10668;BME280;5382;42.136;24.796;2023-06-14T10:36:26;99609.13;;;26.80;100.00
10668;BME280;5382;42.136;24.796;2023-06-14T10:39:04;99612.06;;;27.03;100.00
10668;BME280;5382;42.136;24.796;2023-06-14T10:41:34;99605.75;;;27.03;100.00
10668;BME280;5382;42.136;24.796;2023-06-14T10:44:32;99596.41;;;26.80;100.00
10668;BME280;5382;42.136;24.796;2023-06-14T10:47:01;99601.19;;;26.60;100.00
10668;BME280;5382;42.136;24.796;2023-06-14T10:49:38;99603.28;;;26.58;100.00
10668;BME280;5382;42.136;24.796;2023-06-14T10:52:09;99604.16;;;26.95;100.00
10668;BME280;5382;42.136;24.796;2023-06-14T10:55:01;99602.72;;;27.36;100.00
10668;BME280;5382;42.136;24.796;2023-06-14T10:57:29;99592.03;;;27.71;100.00
10668;BME280;5382;42.136;24.796;2023-06-14T10:59:57;99580.31;;;28.43;100.00
10668;BME280;5382;42.136;24.796;2023-06-14T11:02:46;99589.28;;;28.43;100.00
10668;BME280;5382;42.136;24.796;2023-06-14T11:05:23;99594.31;;;28.70;100.00
10668;BME280;5382;42.136;24.796;2023-06-14T11:10:43;99588.50;;;28.90;100.00
10668;BME280;5382;42.136;24.796;2023-06-14T11:13:11;99589.31;;;28.90;100.00
10668;BME280;5382;42.136;24.796;2023-06-14T11:15:38;99584.38;;;29.11;100.00
10668;BME280;5382;42.136;24.796;2023-06-14T11:18:09;99593.34;;;29.23;100.00
10668;BME280;5382;42.136;24.796;2023-06-14T11:20:36;99586.19;;;29.46;100.00
10668;BME280;5382;42.136;24.796;2023-06-14T11:23:04;99571.88;;;29.39;100.00
10668;BME280;5382;42.136;24.796;2023-06-14T11:25:31;99574.19;;;29.59;100.00
10668;BME280;5382;42.136;24.796;2023-06-14T11:27:59;99575.78;;;30.00;100.00
10668;BME280;5382;42.136;24.796;2023-06-14T11:30:26;99568.91;;;30.26;100.00
10668;BME280;5382;42.136;24.796;2023-06-14T11:32:54;99568.59;;;30.11;100.00
10668;BME280;5382;42.136;24.796;2023-06-14T11:35:22;99559.25;;;29.90;100.00
10668;BME280;5382;42.136;24.796;2023-06-14T11:37:52;99563.41;;;29.81;100.00
10668;BME280;5382;42.136;24.796;2023-06-14T11:40:23;99552.47;;;29.92;100.00
10668;BME280;5382;42.136;24.796;2023-06-14T11:42:59;99565.56;;;30.58;100.00
10668;BME280;5382;42.136;24.796;2023-06-14T11:45:26;99554.44;;;31.20;100.00
10668;BME280;5382;42.136;24.796;2023-06-14T11:47:54;99556.56;;;31.62;100.00
10668;BME280;5382;42.136;24.796;2023-06-14T11:50:22;99544.63;;;31.46;100.00
10668;BME280;5382;42.136;24.796;2023-06-14T11:52:52;99550.81;;;31.37;98.36
10668;BME280;5382;42.136;24.796;2023-06-14T11:55:20;99541.44;;;31.11;99.33
10668;BME280;5382;42.136;24.796;2023-06-14T11:57:46;99542.19;;;30.84;100.00
10668;BME280;5382;42.136;24.796;2023-06-14T12:00:16;99541.50;;;31.60;100.00
10668;BME280;5382;42.136;24.796;2023-06-14T12:02:52;99532.47;;;31.86;97.77
10668;BME280;5382;42.136;24.796;2023-06-14T12:05:21;99532.91;;;31.73;97.49
10668;BME280;5382;42.136;24.796;2023-06-14T12:07:48;99541.59;;;31.70;100.00
10668;BME280;5382;42.136;24.796;2023-06-14T12:10:16;99528.56;;;32.42;99.37
10668;BME280;5382;42.136;24.796;2023-06-14T12:12:43;99539.72;;;33.10;92.97
10668;BME280;5382;42.136;24.796;2023-06-14T12:15:10;99533.41;;;33.19;86.93
10668;BME280;5382;42.136;24.796;2023-06-14T12:17:39;99531.31;;;32.79;87.47
10668;BME280;5382;42.136;24.796;2023-06-14T12:20:09;99529.59;;;32.30;88.08
10668;BME280;5382;42.136;24.796;2023-06-14T12:22:39;99522.53;;;32.40;88.16
10668;BME280;5382;42.136;24.796;2023-06-14T12:25:06;99524.41;;;31.97;88.78
10668;BME280;5382;42.136;24.796;2023-06-14T12:27:35;99504.31;;;31.59;89.99
10668;BME280;5382;42.136;24.796;2023-06-14T12:30:03;99510.72;;;31.97;91.53
10668;BME280;5382;42.136;24.796;2023-06-14T12:32:30;99501.81;;;31.84;100.00
10668;BME280;5382;42.136;24.796;2023-06-14T12:34:58;99499.34;;;31.56;98.90
10668;BME280;5382;42.136;24.796;2023-06-14T12:37:25;99487.84;;;32.13;96.56
10668;BME280;5382;42.136;24.796;2023-06-14T12:39:52;99499.50;;;32.78;88.89
10668;BME280;5382;42.136;24.796;2023-06-14T12:42:19;99490.72;;;33.39;84.54
10668;BME280;5382;42.136;24.796;2023-06-14T12:44:46;99481.59;;;33.13;84.83
10668;BME280;5382;42.136;24.796;2023-06-14T12:47:12;99487.94;;;32.71;85.87
10668;BME280;5382;42.136;24.796;2023-06-14T12:49:39;99471.84;;;32.85;82.88
10668;BME280;5382;42.136;24.796;2023-06-14T12:52:09;99474.47;;;32.59;82.34
10668;BME280;5382;42.136;24.796;2023-06-14T12:54:36;99469.09;;;31.67;83.55
10668;BME280;5382;42.136;24.796;2023-06-14T12:57:05;99462.63;;;32.11;83.80
10668;BME280;5382;42.136;24.796;2023-06-14T12:59:32;99469.09;;;32.79;78.94